Main page
Satellite images 10-day forecastsClimateMarine weather Cyclones Lightning AirportsFAQ Newsletter About
Weather : Europe Africa North America South America Asia Australia-Oceania Others
Languages Contact

Longyearbyen, Longyear,

Svalbard Airport

latitude: Norway, longitude: 78-15N, elevation: 015-28E m


METAR: ENSB 301950Z 27008KT CAVOK 03/01 Q1012 RMK WIND 1400FT 25003KT
TAF: ENSB 3018/3118 26008KT 9999 FEW030

Time: 22:18 (20:18 UTC)

Current weather observation

The report was made 28 minutes ago, at 19:50 UTC
Wind 8 kt from the West
Temperature 3°C
Humidity 87%
Pressure 1012 hPa
Visibility 10 km or more
no clouds below 1500 m and no cumulonimbus

Change units

Forecast

Forecast valid from 30 at 18 UTC to 31 at 18 UTC
Wind 8 kt from the West
Visibility 10 km or more
Few clouds at a height of 3000 ft
The information on this site is subject to a disclaimer
Weather : Europe Africa North America South America Asia Australia-Oceania Others
Satellite images 10-day forecastsClimateMarine weather Cyclones Lightning AirportsFAQ Languages Contact Newsletter About